createdAt,value
2023-10-15T00:01:22.853Z,96716.91
2023-10-15T00:03:51.381Z,96750.59
2023-10-15T00:06:32.082Z,96724.66
2023-10-15T00:09:10.301Z,96735.47
2023-10-15T00:11:38.760Z,96727.19
2023-10-15T00:14:07.578Z,96736.41
2023-10-15T00:16:39.455Z,96745.50
2023-10-15T00:19:11.797Z,96745.91
2023-10-15T00:21:40.701Z,96696.34
2023-10-15T00:24:11.906Z,96684.50
2023-10-15T00:26:40.574Z,96746.34
2023-10-15T00:29:09.691Z,96717.41
2023-10-15T00:31:38.988Z,96713.00
2023-10-15T00:34:13.483Z,96747.16
2023-10-15T00:36:42.194Z,96724.44
2023-10-15T00:39:21.180Z,96747.16
2023-10-15T00:41:49.973Z,96752.78
2023-10-15T00:44:18.437Z,96741.09
2023-10-15T00:46:56.060Z,96725.69
2023-10-15T00:49:27.504Z,96742.75
2023-10-15T00:51:57.134Z,96725.41
2023-10-15T00:54:27.056Z,96708.31
2023-10-15T00:56:56.153Z,96748.50
2023-10-15T00:59:35.727Z,96743.31
2023-10-15T01:02:06.766Z,96739.00
2023-10-15T01:04:37.294Z,96713.00
2023-10-15T01:07:16.218Z,96721.00
2023-10-15T01:09:45.847Z,96730.34
2023-10-15T01:12:32.189Z,96649.88
2023-10-15T01:15:01.187Z,96724.84
2023-10-15T01:17:37.928Z,96737.22
2023-10-15T01:20:10.717Z,96714.66
2023-10-15T01:22:41.054Z,96686.00
2023-10-15T01:25:24.837Z,96692.28
2023-10-15T01:27:56.612Z,96692.72
2023-10-15T01:30:25.847Z,96663.38
2023-10-15T01:32:55.747Z,96697.34
2023-10-15T01:35:26.078Z,96697.22
2023-10-15T01:38:07.540Z,96712.06
2023-10-15T01:40:41.617Z,96715.75
2023-10-15T01:43:13.925Z,96710.88
2023-10-15T01:45:48.603Z,96719.72
2023-10-15T01:48:25.890Z,96679.00
2023-10-15T01:50:56.824Z,96683.13
2023-10-15T01:53:25.447Z,96721.56
2023-10-15T01:56:02.008Z,96691.34
2023-10-15T01:58:34.032Z,96727.16
2023-10-15T02:01:11.174Z,96710.34
2023-10-15T02:03:39.794Z,96684.47
2023-10-15T02:06:09.569Z,96641.28
2023-10-15T02:08:52.669Z,96722.03
2023-10-15T02:11:23.683Z,96693.81
2023-10-15T02:13:56.682Z,96717.06
2023-10-15T02:16:31.284Z,96720.19
2023-10-15T02:19:01.116Z,96710.50
2023-10-15T02:21:32.996Z,96709.75
2023-10-15T02:24:09.536Z,96655.56
2023-10-15T02:26:39.938Z,96715.75
2023-10-15T02:29:23.161Z,96738.91
2023-10-15T02:31:51.604Z,96737.31
2023-10-15T02:34:26.097Z,96709.50
2023-10-15T02:36:54.839Z,96717.75
2023-10-15T02:39:25.030Z,96695.78
2023-10-15T02:41:55.103Z,96697.28
2023-10-15T02:44:23.866Z,96730.19
2023-10-15T02:46:59.506Z,96651.78
2023-10-15T02:49:28.410Z,96728.00
2023-10-15T02:51:57.539Z,96699.69
2023-10-15T02:54:29.742Z,96651.94
2023-10-15T02:57:01.391Z,96714.84
2023-10-15T02:59:32.623Z,96696.25
2023-10-15T03:02:08.127Z,96726.00
2023-10-15T03:04:39.459Z,96726.84
2023-10-15T03:07:21.053Z,96681.81
2023-10-15T03:09:53.351Z,96612.34
2023-10-15T03:12:23.088Z,96694.22
2023-10-15T03:14:52.945Z,96683.91
2023-10-15T03:17:26.868Z,96659.97
2023-10-15T03:20:12.431Z,96847.56
2023-10-15T03:22:41.016Z,96738.03
2023-10-15T03:25:14.409Z,96685.72
2023-10-15T03:27:47.878Z,96649.13
2023-10-15T03:30:23.573Z,97041.31
2023-10-15T03:32:53.987Z,96721.78
2023-10-15T03:35:34.005Z,96694.56
2023-10-15T03:38:06.308Z,96694.84
2023-10-15T03:40:42.410Z,96708.31
2023-10-15T03:43:17.717Z,96721.00
2023-10-15T03:45:52.969Z,96646.66
2023-10-15T03:48:23.737Z,96634.22
2023-10-15T03:50:59.086Z,96663.59
2023-10-15T03:53:30.151Z,96645.81
2023-10-15T03:55:59.678Z,96641.41
2023-10-15T03:58:29.946Z,96733.38
2023-10-15T04:01:12.769Z,96728.69
2023-10-15T04:03:51.463Z,96680.22
2023-10-15T04:06:30.553Z,96691.22
2023-10-15T04:09:10.480Z,96713.78
2023-10-15T04:11:48.386Z,96645.25
2023-10-15T04:14:27.255Z,96739.69
2023-10-15T04:16:55.892Z,96766.16
2023-10-15T04:19:27.253Z,96740.81
2023-10-15T04:22:01.122Z,96767.13
2023-10-15T04:24:37.802Z,96672.75
2023-10-15T04:27:15.473Z,96500.00
2023-10-15T04:29:50.582Z,96702.78
2023-10-15T04:32:25.007Z,96676.31
2023-10-15T04:34:53.753Z,96669.16
2023-10-15T04:37:24.973Z,96682.25
2023-10-15T04:40:05.832Z,96691.47
2023-10-15T04:42:44.679Z,96655.50
2023-10-15T04:45:24.451Z,96707.16
2023-10-15T04:47:54.233Z,96718.63
2023-10-15T04:50:22.831Z,96637.19
2023-10-15T04:52:51.260Z,96679.88
2023-10-15T04:55:20.203Z,96722.88
2023-10-15T04:57:48.504Z,96726.72
2023-10-15T05:00:26.772Z,96715.69
2023-10-15T05:02:55.088Z,96682.34
2023-10-15T05:05:24.248Z,96682.44
2023-10-15T05:07:52.573Z,96633.41
2023-10-15T05:10:22.008Z,96735.78
2023-10-15T05:12:52.999Z,96692.63
2023-10-15T05:15:22.643Z,96656.13
2023-10-15T05:17:50.941Z,96651.84
2023-10-15T05:20:22.002Z,96713.19
2023-10-15T05:22:50.871Z,96684.25
2023-10-15T05:25:19.562Z,96685.66
2023-10-15T05:27:48.289Z,96657.47
2023-10-15T05:30:17.089Z,96692.81
2023-10-15T05:32:49.700Z,96651.47
2023-10-15T05:35:19.030Z,96698.56
2023-10-15T05:37:48.147Z,96657.94
2023-10-15T05:40:17.266Z,96690.00
2023-10-15T05:42:46.150Z,96659.44
2023-10-15T05:45:16.059Z,96708.22
2023-10-15T05:47:46.325Z,96726.66
2023-10-15T05:50:17.426Z,96488.34
2023-10-15T05:52:46.775Z,96720.66
2023-10-15T05:55:15.497Z,96686.22
2023-10-15T05:57:44.770Z,96770.25
2023-10-15T06:00:20.362Z,96682.03
2023-10-15T06:02:52.167Z,96742.69
2023-10-15T06:05:20.817Z,96676.91
2023-10-15T06:07:50.199Z,96713.13
2023-10-15T06:10:18.517Z,96717.28
2023-10-15T06:12:46.757Z,96573.94
2023-10-15T06:15:19.357Z,96718.94
2023-10-15T06:17:51.626Z,96765.00
2023-10-15T06:20:21.751Z,96700.09
2023-10-15T06:22:57.365Z,96720.09
2023-10-15T06:25:26.307Z,96722.44
2023-10-15T06:27:54.679Z,96723.09
2023-10-15T06:30:24.745Z,96731.13
2023-10-15T06:32:55.024Z,96723.34
2023-10-15T06:35:26.567Z,96753.56
2023-10-15T06:37:59.134Z,96762.50
2023-10-15T06:40:29.812Z,96709.91
2023-10-15T06:43:02.245Z,96685.22
2023-10-15T06:45:33.044Z,96783.06
2023-10-15T06:48:04.404Z,96804.69
2023-10-15T06:50:34.546Z,96746.09
2023-10-15T06:53:06.635Z,96735.66
2023-10-15T06:55:36.291Z,96678.84
2023-10-15T06:58:05.626Z,96791.47
2023-10-15T07:00:35.791Z,96628.16
2023-10-15T07:03:06.118Z,96734.56
2023-10-15T07:05:35.516Z,96730.81
2023-10-15T07:08:05.832Z,96790.94
2023-10-15T07:10:34.796Z,96778.25
2023-10-15T07:13:03.658Z,96786.78
2023-10-15T07:15:31.863Z,96795.75
2023-10-15T07:18:01.721Z,96813.66
2023-10-15T07:20:31.655Z,96740.16
2023-10-15T07:23:01.944Z,96766.59
2023-10-15T07:25:30.682Z,96629.81
2023-10-15T07:28:01.173Z,96797.44
2023-10-15T07:30:32.097Z,96769.84
2023-10-15T07:33:01.370Z,96670.88
2023-10-15T07:35:32.923Z,96727.34
2023-10-15T07:38:04.007Z,96755.22
2023-10-15T07:40:35.015Z,96745.47
2023-10-15T07:43:04.131Z,96722.38
2023-10-15T07:45:34.598Z,96747.72
2023-10-15T07:48:06.545Z,96729.84
2023-10-15T07:50:37.432Z,96783.75
2023-10-15T07:53:07.588Z,96756.13
2023-10-15T07:55:35.989Z,96733.84
2023-10-15T07:58:04.539Z,96741.22
2023-10-15T08:00:34.973Z,96773.22
2023-10-15T08:03:09.685Z,96757.63
2023-10-15T08:05:41.515Z,96632.16
2023-10-15T08:08:10.162Z,96763.75
2023-10-15T08:10:39.328Z,96745.88
2023-10-15T08:13:09.577Z,96764.50
2023-10-15T08:15:40.708Z,96781.66
2023-10-15T08:18:09.193Z,96737.41
2023-10-15T08:20:39.088Z,96790.25
2023-10-15T08:23:07.420Z,96785.13
2023-10-15T08:25:35.884Z,96783.69
2023-10-15T08:28:05.478Z,96704.34
2023-10-15T08:30:36.207Z,96803.56
2023-10-15T08:33:11.784Z,96753.91
2023-10-15T08:35:42.444Z,96776.72
2023-10-15T08:38:13.728Z,96754.69
2023-10-15T08:40:45.854Z,96726.53
2023-10-15T08:43:21.317Z,96779.94
2023-10-15T08:45:52.531Z,96735.16
2023-10-15T08:48:21.598Z,96774.59
2023-10-15T08:50:51.503Z,96757.75
2023-10-15T08:53:19.962Z,96784.97
2023-10-15T08:55:48.591Z,96732.22
2023-10-15T08:58:21.623Z,96742.50
2023-10-15T09:00:50.973Z,96751.16
2023-10-15T09:03:21.162Z,96798.31
2023-10-15T09:05:53.306Z,96771.00
2023-10-15T09:08:24.400Z,96658.38
2023-10-15T09:10:54.681Z,96800.72
2023-10-15T09:13:23.150Z,96764.59
2023-10-15T09:15:53.536Z,96779.97
2023-10-15T09:18:22.091Z,96733.22
2023-10-15T09:20:53.167Z,96755.56
2023-10-15T09:23:24.171Z,96792.69
2023-10-15T09:25:57.913Z,96740.22
2023-10-15T09:28:29.311Z,96780.94
2023-10-15T09:31:10.532Z,96776.25
2023-10-15T09:33:40.465Z,96784.06
2023-10-15T09:36:10.624Z,96789.25
2023-10-15T09:38:39.332Z,96807.38
2023-10-15T09:41:07.879Z,96826.50
2023-10-15T09:43:37.286Z,96782.06
2023-10-15T09:46:08.524Z,96787.41
2023-10-15T09:48:38.864Z,96751.25
2023-10-15T09:51:11.299Z,96820.66
2023-10-15T09:53:43.187Z,96827.41
2023-10-15T09:56:13.693Z,96789.28
2023-10-15T09:58:44.532Z,96804.91
2023-10-15T10:01:28.283Z,96837.28
2023-10-15T10:04:27.183Z,96802.34
2023-10-15T10:07:32.211Z,96833.47
2023-10-15T10:10:36.233Z,96809.19
2023-10-15T10:13:27.809Z,96838.13
2023-10-15T10:16:00.556Z,96848.66
2023-10-15T10:18:29.910Z,96796.84
2023-10-15T10:21:01.370Z,96795.84
2023-10-15T10:23:46.134Z,96802.59
2023-10-15T10:26:17.680Z,96745.91
2023-10-15T10:28:48.267Z,96756.13
2023-10-15T10:31:20.455Z,96798.16
2023-10-15T10:33:54.683Z,96791.75
2023-10-15T10:36:27.266Z,96733.97
2023-10-15T10:39:02.146Z,96740.91
2023-10-15T10:41:38.556Z,96803.25
2023-10-15T10:44:23.371Z,96761.22
2023-10-15T10:46:58.554Z,96753.88
2023-10-15T10:49:32.094Z,96759.78
2023-10-15T10:52:15.747Z,96748.47
2023-10-15T10:54:46.505Z,96758.97
2023-10-15T10:57:15.214Z,96770.09
2023-10-15T10:59:44.529Z,96725.09
2023-10-15T11:02:15.431Z,96764.09
2023-10-15T11:04:45.176Z,96776.47
2023-10-15T11:07:15.494Z,96755.03
2023-10-15T11:09:45.652Z,96780.09
2023-10-15T11:12:15.934Z,96776.34
2023-10-15T11:14:45.167Z,96770.78
2023-10-15T11:17:13.450Z,96773.78
2023-10-15T11:19:42.153Z,96797.81
2023-10-15T11:22:11.041Z,96808.13
2023-10-15T11:24:40.139Z,96800.94
2023-10-15T11:27:13.436Z,96762.31
2023-10-15T11:29:45.671Z,96789.84
2023-10-15T11:32:14.188Z,96780.69
2023-10-15T11:34:43.072Z,96803.13
2023-10-15T11:37:11.993Z,96757.81
2023-10-15T11:39:44.449Z,96736.59
2023-10-15T11:42:16.699Z,96759.41
2023-10-15T11:44:47.589Z,96796.75
2023-10-15T11:47:21.062Z,96839.47
2023-10-15T11:49:52.640Z,96845.84
2023-10-15T11:52:23.438Z,96848.19
2023-10-15T11:54:52.714Z,96849.84
2023-10-15T11:57:28.604Z,96796.72
2023-10-15T11:59:59.224Z,96796.75
2023-10-15T12:02:29.804Z,96786.00
2023-10-15T12:05:02.851Z,96810.47
2023-10-15T12:07:31.951Z,96799.28
2023-10-15T12:10:01.203Z,96766.06
2023-10-15T12:12:31.551Z,96795.41
2023-10-15T12:15:00.193Z,96771.47
2023-10-15T12:17:28.485Z,96828.53
2023-10-15T12:20:12.412Z,96763.06
2023-10-15T12:22:45.652Z,96782.47
2023-10-15T12:25:14.205Z,96809.19
2023-10-15T12:27:43.871Z,96830.75
2023-10-15T12:30:21.036Z,96820.72
2023-10-15T12:32:49.707Z,96827.81
2023-10-15T12:35:20.656Z,96735.09
2023-10-15T12:37:50.557Z,96727.28
2023-10-15T12:40:25.202Z,96806.28
2023-10-15T12:42:54.964Z,96765.44
2023-10-15T12:45:24.338Z,96809.91
2023-10-15T12:47:52.811Z,96776.94
2023-10-15T12:50:21.731Z,96778.38
2023-10-15T12:52:50.389Z,96786.91
2023-10-15T12:55:20.062Z,96784.69
2023-10-15T12:57:49.177Z,96802.41
2023-10-15T13:00:22.414Z,96751.75
2023-10-15T13:02:52.816Z,96820.50
2023-10-15T13:05:22.929Z,96804.72
2023-10-15T13:07:53.574Z,96775.81
2023-10-15T13:10:23.368Z,96820.41
2023-10-15T13:12:53.874Z,96812.16
2023-10-15T13:15:23.874Z,96765.47
2023-10-15T13:17:55.548Z,96840.41
2023-10-15T13:20:24.987Z,96856.81
2023-10-15T13:22:53.665Z,96845.66
2023-10-15T13:25:23.493Z,96840.94
2023-10-15T13:27:53.076Z,96792.72
2023-10-15T13:30:23.522Z,96839.03
2023-10-15T13:32:53.405Z,96804.03
2023-10-15T13:35:21.976Z,96792.00
2023-10-15T13:37:52.418Z,96819.81
2023-10-15T13:40:22.822Z,96833.75
2023-10-15T13:42:51.781Z,96824.56
2023-10-15T13:45:20.446Z,96824.34
2023-10-15T13:47:49.220Z,96795.56
2023-10-15T13:50:19.919Z,96822.41
2023-10-15T13:52:49.510Z,96848.00
2023-10-15T13:55:18.298Z,96822.63
2023-10-15T13:57:46.885Z,96818.31
2023-10-15T14:00:20.193Z,96785.09
2023-10-15T14:02:51.119Z,96818.03
2023-10-15T14:05:21.884Z,96779.63
2023-10-15T14:07:53.519Z,96861.50
2023-10-15T14:10:22.876Z,96850.66
2023-10-15T14:12:55.037Z,96841.38
2023-10-15T14:15:30.964Z,96847.63
2023-10-15T14:17:59.340Z,96843.81
2023-10-15T14:20:30.021Z,96802.84
2023-10-15T14:22:58.957Z,96844.38
2023-10-15T14:25:27.429Z,96833.16
2023-10-15T14:27:55.660Z,96873.06
2023-10-15T14:30:24.001Z,96859.84
2023-10-15T14:32:52.658Z,96860.78
2023-10-15T14:35:22.523Z,96739.09
2023-10-15T14:37:52.236Z,96900.09
2023-10-15T14:40:20.597Z,96863.00
2023-10-15T14:42:48.979Z,96870.91
2023-10-15T14:45:17.661Z,96863.16
2023-10-15T14:47:46.217Z,96756.66
2023-10-15T14:50:14.584Z,96901.38
2023-10-15T14:52:43.607Z,96903.69
2023-10-15T14:55:14.109Z,96875.31
2023-10-15T14:57:42.622Z,96899.75
2023-10-15T15:00:15.474Z,96933.50
2023-10-15T15:02:44.747Z,96856.50
2023-10-15T15:05:13.938Z,96918.09
2023-10-15T15:07:43.981Z,96914.84
2023-10-15T15:10:16.315Z,96841.59
2023-10-15T15:12:44.863Z,96919.13
2023-10-15T15:15:15.190Z,96902.88
2023-10-15T15:17:44.224Z,96915.13
2023-10-15T15:20:13.566Z,96938.03
2023-10-15T15:22:43.348Z,96864.38
2023-10-15T15:25:13.373Z,96906.50
2023-10-15T15:27:42.617Z,96900.00
2023-10-15T15:30:12.359Z,96880.13
2023-10-15T15:32:41.023Z,96836.56
2023-10-15T15:35:11.517Z,96882.63
2023-10-15T15:37:41.352Z,96931.97
2023-10-15T15:40:12.732Z,96781.66
2023-10-15T15:42:42.452Z,96860.06
2023-10-15T15:45:14.059Z,96892.72
2023-10-15T15:47:42.474Z,96921.34
2023-10-15T15:50:12.767Z,96913.47
2023-10-15T15:52:45.278Z,96829.97
2023-10-15T15:55:14.215Z,96938.69
2023-10-15T15:57:46.181Z,96842.44
2023-10-15T16:00:18.111Z,96914.06
2023-10-15T16:02:46.705Z,96937.50
2023-10-15T16:05:15.812Z,96930.63
2023-10-15T16:07:45.178Z,96952.66
2023-10-15T16:10:14.159Z,96907.91
2023-10-15T16:12:44.602Z,96901.38
2023-10-15T16:15:13.510Z,96929.50
2023-10-15T16:17:41.897Z,96902.34
2023-10-15T16:20:12.674Z,96961.13
2023-10-15T16:22:41.515Z,96980.22
2023-10-15T16:25:10.780Z,96970.00
2023-10-15T16:27:41.016Z,97003.41
2023-10-15T16:30:13.012Z,96988.78
2023-10-15T16:32:42.383Z,96992.63
2023-10-15T16:35:13.382Z,97012.03
2023-10-15T16:37:42.239Z,96927.50
2023-10-15T16:40:14.144Z,96892.59
2023-10-15T16:42:42.654Z,96996.41
2023-10-15T16:45:14.136Z,96894.88
2023-10-15T16:47:42.626Z,97049.38
2023-10-15T16:50:12.887Z,96976.63
2023-10-15T16:52:41.278Z,96988.22
2023-10-15T16:55:09.953Z,96986.53
2023-10-15T16:57:38.336Z,97024.75
2023-10-15T17:00:11.502Z,97018.84
2023-10-15T17:02:41.333Z,96990.97
2023-10-15T17:05:10.440Z,97052.94
2023-10-15T17:07:38.902Z,96996.91
2023-10-15T17:10:09.847Z,97031.44
2023-10-15T17:12:38.522Z,97056.84
2023-10-15T17:15:12.769Z,97055.59
2023-10-15T17:17:43.048Z,96969.75
2023-10-15T17:20:13.256Z,97046.63
2023-10-15T17:22:41.681Z,97078.50
2023-10-15T17:25:10.503Z,97032.81
2023-10-15T17:27:38.874Z,97104.56
2023-10-15T17:32:43.129Z,97069.25
2023-10-15T17:35:13.166Z,97067.59
2023-10-15T17:37:41.547Z,97048.97
2023-10-15T17:40:12.196Z,97061.22
2023-10-15T17:42:42.621Z,97091.59
2023-10-15T17:45:11.685Z,97062.63
2023-10-15T17:47:41.140Z,97096.03
2023-10-15T17:50:11.849Z,97081.81
2023-10-15T17:52:43.294Z,97053.22
2023-10-15T17:55:12.434Z,97132.16
2023-10-15T17:57:40.966Z,97087.41
2023-10-15T18:00:15.166Z,97060.38
2023-10-15T18:02:44.459Z,97097.28
2023-10-15T18:05:14.284Z,97111.06
2023-10-15T18:07:46.256Z,97101.69
2023-10-15T18:10:14.940Z,97115.28
2023-10-15T18:12:43.755Z,97080.84
2023-10-15T18:15:13.191Z,97163.00
2023-10-15T18:17:41.603Z,97070.91
2023-10-15T18:20:15.831Z,97092.25
2023-10-15T18:22:47.897Z,97103.16
2023-10-15T18:25:17.918Z,97149.22
2023-10-15T18:27:46.458Z,97125.81
2023-10-15T18:30:15.253Z,97136.06
2023-10-15T18:32:43.526Z,97074.56
2023-10-15T18:35:17.003Z,97126.81
2023-10-15T18:37:48.055Z,97116.09
2023-10-15T18:40:16.810Z,97136.34
2023-10-15T18:42:46.475Z,97113.34
2023-10-15T18:45:15.066Z,97121.41
2023-10-15T18:47:43.737Z,97124.69
2023-10-15T18:50:12.519Z,96997.06
2023-10-15T18:52:42.502Z,97152.09
2023-10-15T18:55:13.935Z,97156.50
2023-10-15T18:57:42.292Z,97150.94
2023-10-15T19:00:14.178Z,97139.19
2023-10-15T19:02:42.910Z,97163.53
2023-10-15T19:05:11.276Z,97176.59
2023-10-15T19:07:39.529Z,97153.34
2023-10-15T19:10:10.735Z,97161.16
2023-10-15T19:12:40.982Z,97178.25
2023-10-15T19:15:10.484Z,97157.13
2023-10-15T19:17:38.784Z,97172.31
2023-10-15T19:20:12.034Z,97151.78
2023-10-15T19:22:41.721Z,97154.75
2023-10-15T19:25:12.075Z,97174.91
2023-10-15T19:27:43.977Z,97143.81
2023-10-15T19:30:13.759Z,97202.19
2023-10-15T19:32:43.433Z,97156.47
2023-10-15T19:35:12.742Z,97148.53
2023-10-15T19:37:42.219Z,97178.75
2023-10-15T19:40:12.033Z,97216.91
2023-10-15T19:42:42.144Z,97182.47
2023-10-15T19:45:11.617Z,97167.66
2023-10-15T19:47:40.012Z,97211.53
2023-10-15T19:50:08.727Z,97176.88
2023-10-15T19:52:38.204Z,97161.28
2023-10-15T19:55:07.269Z,97181.84
2023-10-15T19:57:37.999Z,97211.88
2023-10-15T20:00:19.606Z,97204.13
2023-10-15T20:02:49.789Z,97203.84
2023-10-15T20:05:19.267Z,97209.38
2023-10-15T20:07:49.235Z,97198.34
2023-10-15T20:10:18.684Z,97168.41
2023-10-15T20:12:48.393Z,97214.66
2023-10-15T20:15:20.761Z,97197.72
2023-10-15T20:17:50.032Z,97201.97
2023-10-15T20:20:21.168Z,97282.81
2023-10-15T20:22:49.556Z,97172.53
2023-10-15T20:25:20.110Z,97202.94
2023-10-15T20:27:49.745Z,97230.91
2023-10-15T20:30:19.725Z,97146.63
2023-10-15T20:32:55.982Z,97194.34
2023-10-15T20:35:25.715Z,97200.50
2023-10-15T20:37:57.231Z,97184.63
2023-10-15T20:40:27.374Z,97202.59
2023-10-15T20:42:56.122Z,97209.25
2023-10-15T20:45:28.152Z,97233.41
2023-10-15T20:47:56.624Z,97152.66
2023-10-15T20:50:26.353Z,97235.31
2023-10-15T20:52:55.560Z,97152.94
2023-10-15T20:55:26.069Z,97209.38
2023-10-15T20:57:56.349Z,97225.66
2023-10-15T21:00:25.970Z,97295.09
2023-10-15T21:02:56.140Z,97242.78
2023-10-15T21:05:25.646Z,97223.44
2023-10-15T21:07:54.074Z,97223.13
2023-10-15T21:10:23.632Z,97239.50
2023-10-15T21:12:53.078Z,97114.22
2023-10-15T21:15:21.397Z,97247.31
2023-10-15T21:17:51.452Z,97227.84
2023-10-15T21:20:19.795Z,97201.84
2023-10-15T21:22:48.032Z,97231.50
2023-10-15T21:25:16.818Z,97250.97
2023-10-15T21:27:45.788Z,97230.16
2023-10-15T21:30:14.934Z,97238.69
2023-10-15T21:32:43.745Z,97244.59
2023-10-15T21:35:13.641Z,97224.94
2023-10-15T21:37:43.168Z,97147.75
2023-10-15T21:40:16.533Z,97167.69
2023-10-15T21:42:46.984Z,97232.75
2023-10-15T21:45:15.877Z,97233.47
2023-10-15T21:47:46.865Z,97248.44
2023-10-15T21:50:18.030Z,97205.91
2023-10-15T21:52:47.375Z,97261.53
2023-10-15T21:55:16.070Z,97228.63
2023-10-15T21:57:44.450Z,97230.94
2023-10-15T22:00:28.076Z,97222.59
2023-10-15T22:02:56.572Z,97210.56
2023-10-15T22:05:27.325Z,97168.31
2023-10-15T22:07:55.695Z,97196.91
2023-10-15T22:10:27.376Z,97222.31
2023-10-15T22:12:58.039Z,97228.09
2023-10-15T22:15:27.102Z,97236.56
2023-10-15T22:17:56.532Z,97195.75
2023-10-15T22:20:28.989Z,97249.66
2023-10-15T22:22:59.254Z,97235.16
2023-10-15T22:25:35.537Z,97127.03
2023-10-15T22:28:11.379Z,97180.59
2023-10-15T22:30:39.795Z,97192.34
2023-10-15T22:33:09.577Z,97190.16
2023-10-15T22:35:42.097Z,97236.56
2023-10-15T22:38:13.412Z,97194.31
2023-10-15T22:40:45.357Z,97158.34
2023-10-15T22:43:14.270Z,97191.38
2023-10-15T22:45:42.979Z,97128.28
2023-10-15T22:48:11.313Z,97186.91
2023-10-15T22:50:42.248Z,97200.78
2023-10-15T22:53:12.629Z,97156.66
2023-10-15T22:55:42.758Z,97181.41
2023-10-15T22:58:12.035Z,97184.97
2023-10-15T23:00:41.423Z,97151.25
2023-10-15T23:05:39.386Z,97115.47
2023-10-15T23:08:11.063Z,97177.13
2023-10-15T23:10:41.172Z,97247.69
2023-10-15T23:13:10.428Z,97217.22
2023-10-15T23:15:40.562Z,97150.75
2023-10-15T23:18:10.493Z,97251.91
2023-10-15T23:20:41.855Z,97193.44
2023-10-15T23:23:20.204Z,97135.25
2023-10-15T23:25:52.732Z,97206.25
2023-10-15T23:28:24.886Z,97192.75
2023-10-15T23:30:57.444Z,97057.69
2023-10-15T23:33:30.361Z,97170.69
2023-10-15T23:36:00.238Z,97123.31
2023-10-15T23:38:31.594Z,97218.91
2023-10-15T23:40:59.934Z,97127.41
2023-10-15T23:43:28.309Z,97224.53
2023-10-15T23:46:05.722Z,97145.28
2023-10-15T23:48:38.590Z,97165.13
2023-10-15T23:51:12.623Z,97227.09
2023-10-15T23:53:44.298Z,97150.84
2023-10-15T23:56:24.356Z,97207.66
2023-10-15T23:58:57.514Z,97064.09
